PWSweather.com
Personal Weather Stations
Station Observations
EDMONTONWEATHER
Edmonton, Edmonton, AB T5N 0Z3

EdmontonEdmonton, AB T5N 0Z3

Lat: 53.54155, Lon: -113.53337690000001

Elevation: 630

Station Type: Netatmo

http://my.meteoware.com/YegWeather/

Latest ConditionsUpdated 3:54:00 PM MDT Friday, Oct 18, 2019
Currently Today's Max Today's Min Today's Average
Temperature 54.7°F12.6°C 54.7°F12.6°C 35.1°F1.7°C 42.4°F5.8°C
Dew Point 39.0°F3.9°C 39.6°F4.2°C 29.7°F-1.3°C 34.5°F1.4°C
Winds 1.3 mph SW2.1 kmh SW 3.1 mph -5.0 kmh - - 0.9 mph 1.4 kmh
Wind Gusts 3.1 mph5.0 kmh 8.7 mph14.0 kmh - -
Humidity 60% 89% 60% 79%
Pressure 29.44 in997.0 mb 29.44 in997.0 mb 29.36 in994.2 mb -
Hour Temp Dew Point Humidity Winds Wind Gusts Pressure Precip Precip Rate Daily Precip Total
03:54 PM 54.7°F12.6°C 39.0°F3.9°C 60% 1.3 mph SW2.1 kmh SW 3.1 mph5.0 kmh 29.44 in997.0 mb 0.00 in0.0 mm 0.00 in0.0 mm 0.00 in0.0 mm
03:45 PM 54.7°F12.6°C 39.0°F3.9°C 60% 1.3 mph WSW2.1 kmh WSW 6.3 mph10.1 kmh 29.44 in997.0 mb 0.00 in0.0 mm 0.00 in0.0 mm 0.00 in0.0 mm
03:35 PM 54.3°F12.4°C 38.8°F3.8°C 60% 1.8 mph WSW2.9 kmh WSW 6.3 mph10.1 kmh 29.43 in996.6 mb 0.00 in0.0 mm 0.00 in0.0 mm 0.00 in0.0 mm
03:24 PM 54.1°F12.3°C 38.7°F3.7°C 60% 1.8 mph WSW2.9 kmh WSW 5.6 mph9.0 kmh 29.43 in996.6 mb 0.00 in0.0 mm 0.00 in0.0 mm 0.00 in0.0 mm
03:14 PM 53.8°F12.1°C 39.0°F3.9°C 62% 1.3 mph SW2.1 kmh SW 5.6 mph9.0 kmh 29.43 in996.6 mb 0.00 in0.0 mm 0.00 in0.0 mm 0.00 in0.0 mm
03:04 PM 53.8°F12.1°C 38.7°F3.7°C 61% 1.3 mph WSW2.1 kmh WSW 4.3 mph6.9 kmh 29.43 in996.6 mb 0.00 in0.0 mm 0.00 in0.0 mm 0.00 in0.0 mm
02:54 PM 53.8°F12.1°C 38.7°F3.7°C 61% 1.8 mph SW2.9 kmh SW 8.1 mph13.0 kmh 29.42 in996.3 mb 0.00 in0.0 mm 0.00 in0.0 mm 0.00 in0.0 mm
02:44 PM 53.8°F12.1°C 38.3°F3.5°C 60% 1.8 mph SW2.9 kmh SW 6.3 mph10.1 kmh 29.42 in996.3 mb 0.00 in0.0 mm 0.00 in0.0 mm 0.00 in0.0 mm
02:34 PM 53.8°F12.1°C 38.3°F3.5°C 60% 2.5 mph SW4.0 kmh SW 4.9 mph7.9 kmh 29.42 in996.3 mb 0.00 in0.0 mm 0.00 in0.0 mm 0.00 in0.0 mm
02:24 PM 54.0°F12.2°C 38.8°F3.8°C 61% 1.3 mph SW2.1 kmh SW 4.3 mph6.9 kmh 29.42 in996.3 mb 0.00 in0.0 mm 0.00 in0.0 mm 0.00 in0.0 mm
02:14 PM 53.8°F12.1°C 38.7°F3.7°C 61% 1.3 mph WSW2.1 kmh WSW 4.3 mph6.9 kmh 29.42 in996.3 mb 0.00 in0.0 mm 0.00 in0.0 mm 0.00 in0.0 mm
02:03 PM 53.6°F12.0°C 38.5°F3.6°C 61% 3.1 mph WSW5.0 kmh WSW 8.7 mph14.0 kmh 29.41 in995.9 mb 0.00 in0.0 mm 0.00 in0.0 mm 0.00 in0.0 mm
01:53 PM 53.2°F11.8°C 38.5°F3.6°C 62% 1.8 mph SW2.9 kmh SW 5.6 mph9.0 kmh 29.42 in996.3 mb 0.00 in0.0 mm 0.00 in0.0 mm 0.00 in0.0 mm
01:44 PM 53.1°F11.7°C 38.3°F3.5°C 62% 1.3 mph WSW2.1 kmh WSW 4.3 mph6.9 kmh 29.41 in995.9 mb 0.00 in0.0 mm 0.00 in0.0 mm 0.00 in0.0 mm
01:33 PM 53.1°F11.7°C 37.9°F3.3°C 61% 1.8 mph SW2.9 kmh SW 5.6 mph9.0 kmh 29.41 in995.9 mb 0.00 in0.0 mm 0.00 in0.0 mm 0.00 in0.0 mm
01:23 PM 53.2°F11.8°C 38.1°F3.4°C 61% 1.8 mph WSW2.9 kmh WSW 4.3 mph6.9 kmh 29.41 in995.9 mb 0.00 in0.0 mm 0.00 in0.0 mm 0.00 in0.0 mm
01:13 PM 53.4°F11.9°C 39.6°F4.2°C 64% 1.3 mph WSW2.1 kmh WSW 3.8 mph6.1 kmh 29.41 in995.9 mb 0.00 in0.0 mm 0.00 in0.0 mm 0.00 in0.0 mm
01:03 PM 53.2°F11.8°C 39.4°F4.1°C 64% 0.7 mph W1.1 kmh W 3.1 mph5.0 kmh 29.41 in995.9 mb 0.00 in0.0 mm 0.00 in0.0 mm 0.00 in0.0 mm
12:52 PM 52.9°F11.6°C 39.0°F3.9°C 64% 1.3 mph WSW2.1 kmh WSW 3.8 mph6.1 kmh 29.41 in995.9 mb 0.00 in0.0 mm 0.00 in0.0 mm 0.00 in0.0 mm
12:42 PM 52.3°F11.3°C 39.2°F4.0°C 66% 1.3 mph WSW2.1 kmh WSW 3.1 mph5.0 kmh 29.40 in995.6 mb 0.00 in0.0 mm 0.00 in0.0 mm 0.00 in0.0 mm
12:33 PM 51.4°F10.8°C 38.5°F3.6°C 66% 1.3 mph WSW2.1 kmh WSW 3.1 mph5.0 kmh 29.40 in995.6 mb 0.00 in0.0 mm 0.00 in0.0 mm 0.00 in0.0 mm
12:22 PM 50.5°F10.3°C 38.3°F3.5°C 68% 1.8 mph WSW2.9 kmh WSW 6.9 mph11.1 kmh 29.40 in995.6 mb 0.00 in0.0 mm 0.00 in0.0 mm 0.00 in0.0 mm
12:12 PM 49.1°F9.5°C 39.2°F4.0°C 74% 0.7 mph W1.1 kmh W 1.8 mph2.9 kmh 29.40 in995.6 mb 0.00 in0.0 mm 0.00 in0.0 mm 0.00 in0.0 mm
12:02 PM 47.8°F8.8°C 38.5°F3.6°C 75% 0.7 mph NE1.1 kmh NE 1.3 mph2.1 kmh 29.40 in995.6 mb 0.00 in0.0 mm 0.00 in0.0 mm 0.00 in0.0 mm
11:52 AM 46.6°F8.1°C 37.9°F3.3°C 77% 0.7 mph NE1.1 kmh NE 1.3 mph2.1 kmh 29.40 in995.6 mb 0.00 in0.0 mm 0.00 in0.0 mm 0.00 in0.0 mm
11:41 AM 45.1°F7.3°C 36.9°F2.7°C 78% 0.7 mph W1.1 kmh W 1.3 mph2.1 kmh 29.40 in995.6 mb 0.00 in0.0 mm 0.00 in0.0 mm 0.00 in0.0 mm
11:32 AM 44.2°F6.8°C 36.1°F2.3°C 78% 0.7 mph W1.1 kmh W 1.8 mph2.9 kmh 29.39 in995.3 mb 0.00 in0.0 mm 0.00 in0.0 mm 0.00 in0.0 mm
11:22 AM 43.3°F6.3°C 35.6°F2.0°C 79% 0.7 mph NE1.1 kmh NE 2.5 mph4.0 kmh 29.40 in995.6 mb 0.00 in0.0 mm 0.00 in0.0 mm 0.00 in0.0 mm
11:12 AM 42.3°F5.7°C 34.9°F1.6°C 80% 0.7 mph W1.1 kmh W 1.8 mph2.9 kmh 29.39 in995.3 mb 0.00 in0.0 mm 0.00 in0.0 mm 0.00 in0.0 mm
11:01 AM 41.2°F5.1°C 33.8°F1.0°C 80% 0.7 mph NE1.1 kmh NE 1.8 mph2.9 kmh 29.39 in995.3 mb 0.00 in0.0 mm 0.00 in0.0 mm 0.00 in0.0 mm
10:51 AM 40.3°F4.6°C 33.3°F0.7°C 81% 0.7 mph NE1.1 kmh NE 1.3 mph2.1 kmh 29.39 in995.3 mb 0.00 in0.0 mm 0.00 in0.0 mm 0.00 in0.0 mm
10:42 AM 39.7°F4.3°C 32.7°F0.4°C 81% 0.7 mph NNE1.1 kmh NNE 1.3 mph2.1 kmh 29.39 in995.3 mb 0.00 in0.0 mm 0.00 in0.0 mm 0.00 in0.0 mm
10:31 AM 39.2°F4.0°C 32.7°F0.4°C 82% 0.7 mph N1.1 kmh N 1.8 mph2.9 kmh 29.39 in995.3 mb 0.00 in0.0 mm 0.00 in0.0 mm 0.00 in0.0 mm
10:21 AM 38.7°F3.7°C 32.2°F0.1°C 82% 0.7 mph E1.1 kmh E 1.8 mph2.9 kmh 29.39 in995.3 mb 0.00 in0.0 mm 0.00 in0.0 mm 0.00 in0.0 mm
10:11 AM 37.9°F3.3°C 31.8°F-0.1°C 83% 0.7 mph E1.1 kmh E 1.8 mph2.9 kmh 29.39 in995.3 mb 0.00 in0.0 mm 0.00 in0.0 mm 0.00 in0.0 mm
10:01 AM 37.4°F3.0°C 30.9°F-0.6°C 82% 0.7 mph NW1.1 kmh NW 1.8 mph2.9 kmh 29.39 in995.3 mb 0.00 in0.0 mm 0.00 in0.0 mm 0.00 in0.0 mm
09:50 AM 37.0°F2.8°C 30.9°F-0.6°C 83% 0.7 mph NNW1.1 kmh NNW 1.8 mph2.9 kmh 29.38 in994.9 mb 0.00 in0.0 mm 0.00 in0.0 mm 0.00 in0.0 mm
09:41 AM 36.9°F2.7°C 30.7°F-0.7°C 83% 0.7 mph W1.1 kmh W 2.5 mph4.0 kmh 29.39 in995.3 mb 0.00 in0.0 mm 0.00 in0.0 mm 0.00 in0.0 mm
09:31 AM 36.7°F2.6°C 30.9°F-0.6°C 84% 0.7 mph NE1.1 kmh NE 2.5 mph4.0 kmh 29.38 in994.9 mb 0.00 in0.0 mm 0.00 in0.0 mm 0.00 in0.0 mm
09:10 AM 36.0°F2.2°C 30.6°F-0.8°C 85% 0.7 mph NNE1.1 kmh NNE 1.3 mph2.1 kmh 29.37 in994.6 mb 0.00 in0.0 mm 0.00 in0.0 mm 0.00 in0.0 mm
09:00 AM 35.8°F2.1°C 30.4°F-0.9°C 85% 0.7 mph NE1.1 kmh NE 2.5 mph4.0 kmh 29.36 in994.2 mb 0.00 in0.0 mm 0.00 in0.0 mm 0.00 in0.0 mm
08:40 AM 35.1°F1.7°C 30.0°F-1.1°C 86% 0.7 mph NNE1.1 kmh NNE 1.3 mph2.1 kmh 29.37 in994.6 mb 0.00 in0.0 mm 0.00 in0.0 mm 0.00 in0.0 mm
08:30 AM 35.1°F1.7°C 30.0°F-1.1°C 86% 0.7 mph NNE1.1 kmh NNE 1.3 mph2.1 kmh 29.36 in994.2 mb 0.00 in0.0 mm 0.00 in0.0 mm 0.00 in0.0 mm
08:10 AM 35.2°F1.8°C 29.8°F-1.2°C 85% 0.7 mph N1.1 kmh N 1.3 mph2.1 kmh 29.37 in994.6 mb 0.00 in0.0 mm 0.00 in0.0 mm 0.00 in0.0 mm
07:59 AM 35.2°F1.8°C 29.8°F-1.2°C 85% 0.7 mph N1.1 kmh N 1.3 mph2.1 kmh 29.36 in994.2 mb 0.00 in0.0 mm 0.00 in0.0 mm 0.00 in0.0 mm
07:40 AM 35.6°F2.0°C 29.8°F-1.2°C 84% 0.7 mph NE1.1 kmh NE 1.3 mph2.1 kmh 29.36 in994.2 mb 0.00 in0.0 mm 0.00 in0.0 mm 0.00 in0.0 mm
07:29 AM 35.8°F2.1°C 30.0°F-1.1°C 84% 0.7 mph W1.1 kmh W 1.8 mph2.9 kmh 29.37 in994.6 mb 0.00 in0.0 mm 0.00 in0.0 mm 0.00 in0.0 mm
07:19 AM 35.6°F2.0°C 29.8°F-1.2°C 84% 0.7 mph 1.1 kmh 1.3 mph2.1 kmh 29.36 in994.2 mb 0.00 in0.0 mm 0.00 in0.0 mm 0.00 in0.0 mm
07:09 AM 35.4°F1.9°C 29.7°F-1.3°C 84% 0.7 mph W1.1 kmh W 1.8 mph2.9 kmh 29.37 in994.6 mb 0.00 in0.0 mm 0.00 in0.0 mm 0.00 in0.0 mm
06:59 AM 35.4°F1.9°C 29.7°F-1.3°C 84% 0.7 mph W1.1 kmh W 1.8 mph2.9 kmh 29.37 in994.6 mb 0.00 in0.0 mm 0.00 in0.0 mm 0.00 in0.0 mm
06:49 AM 35.4°F1.9°C 29.7°F-1.3°C 84% 0.7 mph W1.1 kmh W 1.8 mph2.9 kmh 29.37 in994.6 mb 0.00 in0.0 mm 0.00 in0.0 mm 0.00 in0.0 mm
06:39 AM 35.6°F2.0°C 29.8°F-1.2°C 84% 0.7 mph NNW1.1 kmh NNW 1.8 mph2.9 kmh 29.36 in994.2 mb 0.00 in0.0 mm 0.00 in0.0 mm 0.00 in0.0 mm
06:29 AM 35.8°F2.1°C 30.0°F-1.1°C 84% 0.7 mph NNW1.1 kmh NNW 1.3 mph2.1 kmh 29.36 in994.2 mb 0.00 in0.0 mm 0.00 in0.0 mm 0.00 in0.0 mm
06:18 AM 35.8°F2.1°C 30.0°F-1.1°C 84% 0.7 mph W1.1 kmh W 1.8 mph2.9 kmh 29.36 in994.2 mb 0.00 in0.0 mm 0.00 in0.0 mm 0.00 in0.0 mm
06:08 AM 36.0°F2.2°C 30.2°F-1.0°C 84% 0.7 mph NW1.1 kmh NW 2.5 mph4.0 kmh 29.36 in994.2 mb 0.00 in0.0 mm 0.00 in0.0 mm 0.00 in0.0 mm
05:58 AM 36.1°F2.3°C 30.7°F-0.7°C 85% 0.7 mph W1.1 kmh W 1.8 mph2.9 kmh 29.37 in994.6 mb 0.00 in0.0 mm 0.00 in0.0 mm 0.00 in0.0 mm
05:49 AM 36.1°F2.3°C 30.7°F-0.7°C 85% 0.7 mph W1.1 kmh W 1.8 mph2.9 kmh 29.36 in994.2 mb 0.00 in0.0 mm 0.00 in0.0 mm 0.00 in0.0 mm
05:38 AM 36.1°F2.3°C 30.7°F-0.7°C 85% 0.7 mph W1.1 kmh W 1.3 mph2.1 kmh 29.36 in994.2 mb 0.00 in0.0 mm 0.00 in0.0 mm 0.00 in0.0 mm
05:28 AM 36.3°F2.4°C 31.3°F-0.4°C 86% 0.7 mph W1.1 kmh W 1.8 mph2.9 kmh 29.36 in994.2 mb 0.00 in0.0 mm 0.00 in0.0 mm 0.00 in0.0 mm
05:18 AM 36.3°F2.4°C 31.6°F-0.2°C 87% 0.7 mph NW1.1 kmh NW 1.3 mph2.1 kmh 29.36 in994.2 mb 0.00 in0.0 mm 0.00 in0.0 mm 0.00 in0.0 mm
05:08 AM 36.3°F2.4°C 31.6°F-0.2°C 87% 0.7 mph W1.1 kmh W 1.3 mph2.1 kmh 29.36 in994.2 mb 0.00 in0.0 mm 0.00 in0.0 mm 0.00 in0.0 mm
04:57 AM 36.3°F2.4°C 32.0°F0.0°C 88% 0.7 mph W1.1 kmh W 1.8 mph2.9 kmh 29.36 in994.2 mb 0.00 in0.0 mm 0.00 in0.0 mm 0.00 in0.0 mm
04:48 AM 36.5°F2.5°C 32.2°F0.1°C 88% 0.7 mph 1.1 kmh 1.8 mph2.9 kmh 29.36 in994.2 mb 0.00 in0.0 mm 0.00 in0.0 mm 0.00 in0.0 mm
04:38 AM 36.5°F2.5°C 32.2°F0.1°C 88% 0.7 mph W1.1 kmh W 1.8 mph2.9 kmh 29.36 in994.2 mb 0.00 in0.0 mm 0.00 in0.0 mm 0.00 in0.0 mm
04:27 AM 36.7°F2.6°C 32.4°F0.2°C 88% 0.7 mph W1.1 kmh W 2.5 mph4.0 kmh 29.36 in994.2 mb 0.00 in0.0 mm 0.00 in0.0 mm 0.00 in0.0 mm
04:07 AM 37.0°F2.8°C 33.1°F0.6°C 89% 0.7 mph SW1.1 kmh SW 1.8 mph2.9 kmh 29.36 in994.2 mb 0.00 in0.0 mm 0.00 in0.0 mm 0.00 in0.0 mm
03:58 AM 37.2°F2.9°C 32.9°F0.5°C 88% 0.7 mph W1.1 kmh W 2.5 mph4.0 kmh 29.36 in994.2 mb 0.00 in0.0 mm 0.00 in0.0 mm 0.00 in0.0 mm
03:48 AM 37.6°F3.1°C 33.6°F0.9°C 89% 0.7 mph W1.1 kmh W 1.8 mph2.9 kmh 29.36 in994.2 mb 0.00 in0.0 mm 0.00 in0.0 mm 0.00 in0.0 mm
03:38 AM 37.6°F3.1°C 33.3°F0.7°C 88% 0.7 mph N1.1 kmh N 1.8 mph2.9 kmh 29.37 in994.6 mb 0.00 in0.0 mm 0.00 in0.0 mm 0.00 in0.0 mm
03:28 AM 37.6°F3.1°C 33.3°F0.7°C 88% 0.7 mph W1.1 kmh W 1.8 mph2.9 kmh 29.36 in994.2 mb 0.00 in0.0 mm 0.00 in0.0 mm 0.00 in0.0 mm
03:17 AM 37.8°F3.2°C 33.4°F0.8°C 88% 0.7 mph W1.1 kmh W 1.8 mph2.9 kmh 29.36 in994.2 mb 0.00 in0.0 mm 0.00 in0.0 mm 0.00 in0.0 mm
03:08 AM 38.1°F3.4°C 33.4°F0.8°C 87% 0.7 mph N1.1 kmh N 1.8 mph2.9 kmh 29.36 in994.2 mb 0.00 in0.0 mm 0.00 in0.0 mm 0.00 in0.0 mm
02:58 AM 38.5°F3.6°C 33.8°F1.0°C 87% 0.7 mph N1.1 kmh N 1.3 mph2.1 kmh 29.36 in994.2 mb 0.00 in0.0 mm 0.00 in0.0 mm 0.00 in0.0 mm
02:47 AM 38.7°F3.7°C 34.0°F1.1°C 87% 0.7 mph W1.1 kmh W 2.5 mph4.0 kmh 29.36 in994.2 mb 0.00 in0.0 mm 0.00 in0.0 mm 0.00 in0.0 mm
02:37 AM 38.8°F3.8°C 34.2°F1.2°C 87% 0.7 mph W1.1 kmh W 1.8 mph2.9 kmh 29.36 in994.2 mb 0.00 in0.0 mm 0.00 in0.0 mm 0.00 in0.0 mm
02:27 AM 39.2°F4.0°C 34.5°F1.4°C 87% 0.7 mph W1.1 kmh W 1.8 mph2.9 kmh 29.36 in994.2 mb 0.00 in0.0 mm 0.00 in0.0 mm 0.00 in0.0 mm
02:18 AM 39.6°F4.2°C 34.9°F1.6°C 87% 0.7 mph NE1.1 kmh NE 1.8 mph2.9 kmh 29.36 in994.2 mb 0.00 in0.0 mm 0.00 in0.0 mm 0.00 in0.0 mm
02:07 AM 39.9°F4.4°C 34.9°F1.6°C 86% 0.7 mph NW1.1 kmh NW 1.8 mph2.9 kmh 29.36 in994.2 mb 0.00 in0.0 mm 0.00 in0.0 mm 0.00 in0.0 mm
01:57 AM 40.3°F4.6°C 35.2°F1.8°C 86% 0.7 mph 1.1 kmh 1.8 mph2.9 kmh 29.36 in994.2 mb 0.00 in0.0 mm 0.00 in0.0 mm 0.00 in0.0 mm
01:47 AM 40.6°F4.8°C 35.6°F2.0°C 86% 0.7 mph NNE1.1 kmh NNE 2.5 mph4.0 kmh 29.36 in994.2 mb 0.00 in0.0 mm 0.00 in0.0 mm 0.00 in0.0 mm
01:37 AM 41.0°F5.0°C 36.0°F2.2°C 86% 0.7 mph NE1.1 kmh NE 1.8 mph2.9 kmh 29.36 in994.2 mb 0.00 in0.0 mm 0.00 in0.0 mm 0.00 in0.0 mm
01:26 AM 41.4°F5.2°C 35.8°F2.1°C 85% 0.7 mph NNE1.1 kmh NNE 1.3 mph2.1 kmh 29.36 in994.2 mb 0.00 in0.0 mm 0.00 in0.0 mm 0.00 in0.0 mm
01:17 AM 41.7°F5.4°C 36.1°F2.3°C 85% 0.7 mph NNE1.1 kmh NNE 1.8 mph2.9 kmh 29.36 in994.2 mb 0.00 in0.0 mm 0.00 in0.0 mm 0.00 in0.0 mm
01:07 AM 42.1°F5.6°C 36.5°F2.5°C 85% 0.7 mph NW1.1 kmh NW 1.3 mph2.1 kmh 29.36 in994.2 mb 0.00 in0.0 mm 0.00 in0.0 mm 0.00 in0.0 mm
12:56 AM 42.6°F5.9°C 36.7°F2.6°C 84% 0.7 mph NE1.1 kmh NE 1.3 mph2.1 kmh 29.36 in994.2 mb 0.00 in0.0 mm 0.00 in0.0 mm 0.00 in0.0 mm
12:46 AM 43.0°F6.1°C 37.0°F2.8°C 84% 0.7 mph NE1.1 kmh NE 1.3 mph2.1 kmh 29.36 in994.2 mb 0.00 in0.0 mm 0.00 in0.0 mm 0.00 in0.0 mm
12:36 AM 43.3°F6.3°C 37.4°F3.0°C 84% 0.7 mph 1.1 kmh 1.3 mph2.1 kmh 29.36 in994.2 mb 0.00 in0.0 mm 0.00 in0.0 mm 0.00 in0.0 mm
12:26 AM 43.2°F6.2°C 37.2°F2.9°C 84% 0.7 mph W1.1 kmh W 1.3 mph2.1 kmh 29.36 in994.2 mb 0.00 in0.0 mm 0.00 in0.0 mm 0.00 in0.0 mm
12:16 AM 43.2°F6.2°C 37.2°F2.9°C 84% 0.7 mph W1.1 kmh W 1.3 mph2.1 kmh 29.36 in994.2 mb 0.00 in0.0 mm 0.00 in0.0 mm 0.00 in0.0 mm
12:06 AM 43.2°F6.2°C 36.9°F2.7°C 83% 0.7 mph NE1.1 kmh NE 1.3 mph2.1 kmh 29.36 in994.2 mb 0.00 in0.0 mm 0.00 in0.0 mm 0.00 in0.0 mm